sensor_id;sensor_type;location;lat;lon;timestamp;P1;durP1;ratioP1;P2;durP2;ratioP2
20935;SDS011;10627;54.514;18.532;2022-11-20T00:03:01;44.40;;;21.93;;
20935;SDS011;10627;54.514;18.532;2022-11-20T00:08:02;45.07;;;21.90;;
20935;SDS011;10627;54.514;18.532;2022-11-20T00:13:02;45.80;;;20.53;;
20935;SDS011;10627;54.514;18.532;2022-11-20T00:18:03;48.10;;;21.67;;
20935;SDS011;10627;54.514;18.532;2022-11-20T00:23:04;49.63;;;21.27;;
20935;SDS011;10627;54.514;18.532;2022-11-20T00:28:07;46.80;;;22.17;;
20935;SDS011;10627;54.514;18.532;2022-11-20T00:33:07;42.47;;;21.03;;
20935;SDS011;10627;54.514;18.532;2022-11-20T00:38:08;46.50;;;21.27;;
20935;SDS011;10627;54.514;18.532;2022-11-20T00:43:08;46.27;;;21.73;;
20935;SDS011;10627;54.514;18.532;2022-11-20T00:48:09;49.23;;;22.17;;
20935;SDS011;10627;54.514;18.532;2022-11-20T00:53:10;47.83;;;21.87;;
20935;SDS011;10627;54.514;18.532;2022-11-20T00:58:12;55.03;;;22.53;;
20935;SDS011;10627;54.514;18.532;2022-11-20T01:03:13;52.23;;;23.70;;
20935;SDS011;10627;54.514;18.532;2022-11-20T01:08:14;44.93;;;22.33;;
20935;SDS011;10627;54.514;18.532;2022-11-20T01:13:14;45.20;;;21.67;;
20935;SDS011;10627;54.514;18.532;2022-11-20T01:18:34;54.30;;;24.92;;
20935;SDS011;10627;54.514;18.532;2022-11-20T01:23:36;42.90;;;21.33;;
20935;SDS011;10627;54.514;18.532;2022-11-20T01:33:55;44.27;;;22.17;;
20935;SDS011;10627;54.514;18.532;2022-11-20T01:39:04;43.07;;;20.03;;
20935;SDS011;10627;54.514;18.532;2022-11-20T01:44:05;42.57;;;21.03;;
20935;SDS011;10627;54.514;18.532;2022-11-20T01:54:14;47.07;;;21.13;;
20935;SDS011;10627;54.514;18.532;2022-11-20T01:59:17;49.00;;;21.73;;
20935;SDS011;10627;54.514;18.532;2022-11-20T02:04:18;41.77;;;21.30;;
20935;SDS011;10627;54.514;18.532;2022-11-20T02:09:18;45.30;;;21.77;;
20935;SDS011;10627;54.514;18.532;2022-11-20T02:14:19;44.10;;;20.73;;
20935;SDS011;10627;54.514;18.532;2022-11-20T02:19:30;45.83;;;21.07;;
20935;SDS011;10627;54.514;18.532;2022-11-20T02:24:31;47.07;;;20.83;;
20935;SDS011;10627;54.514;18.532;2022-11-20T02:29:32;50.53;;;20.77;;
20935;SDS011;10627;54.514;18.532;2022-11-20T02:34:34;40.90;;;20.03;;
20935;SDS011;10627;54.514;18.532;2022-11-20T02:39:35;44.57;;;20.03;;
20935;SDS011;10627;54.514;18.532;2022-11-20T02:44:35;50.53;;;20.80;;
20935;SDS011;10627;54.514;18.532;2022-11-20T02:49:36;45.73;;;20.10;;
20935;SDS011;10627;54.514;18.532;2022-11-20T02:54:36;42.43;;;21.50;;
20935;SDS011;10627;54.514;18.532;2022-11-20T02:59:37;45.73;;;20.07;;
20935;SDS011;10627;54.514;18.532;2022-11-20T03:04:38;44.83;;;19.93;;
20935;SDS011;10627;54.514;18.532;2022-11-20T03:09:38;43.33;;;18.67;;
20935;SDS011;10627;54.514;18.532;2022-11-20T03:14:39;41.67;;;19.10;;
20935;SDS011;10627;54.514;18.532;2022-11-20T03:19:39;41.50;;;20.70;;
20935;SDS011;10627;54.514;18.532;2022-11-20T03:24:40;43.63;;;19.97;;
20935;SDS011;10627;54.514;18.532;2022-11-20T03:29:41;45.10;;;18.27;;
20935;SDS011;10627;54.514;18.532;2022-11-20T03:34:41;40.40;;;18.93;;
20935;SDS011;10627;54.514;18.532;2022-11-20T03:39:42;43.43;;;20.00;;
20935;SDS011;10627;54.514;18.532;2022-11-20T03:44:42;43.90;;;19.60;;
20935;SDS011;10627;54.514;18.532;2022-11-20T03:49:43;42.20;;;19.90;;
20935;SDS011;10627;54.514;18.532;2022-11-20T03:54:43;47.73;;;21.60;;
20935;SDS011;10627;54.514;18.532;2022-11-20T03:59:46;40.70;;;19.83;;
20935;SDS011;10627;54.514;18.532;2022-11-20T04:04:46;41.63;;;18.87;;
20935;SDS011;10627;54.514;18.532;2022-11-20T04:09:47;41.43;;;18.53;;
20935;SDS011;10627;54.514;18.532;2022-11-20T04:14:48;41.77;;;20.30;;
20935;SDS011;10627;54.514;18.532;2022-11-20T04:19:49;42.77;;;19.73;;
20935;SDS011;10627;54.514;18.532;2022-11-20T04:24:49;44.77;;;19.67;;
20935;SDS011;10627;54.514;18.532;2022-11-20T04:29:50;43.70;;;19.57;;
20935;SDS011;10627;54.514;18.532;2022-11-20T04:34:50;48.50;;;19.13;;
20935;SDS011;10627;54.514;18.532;2022-11-20T04:39:51;45.50;;;21.20;;
20935;SDS011;10627;54.514;18.532;2022-11-20T04:44:51;51.97;;;21.63;;
20935;SDS011;10627;54.514;18.532;2022-11-20T04:49:52;47.13;;;19.50;;
20935;SDS011;10627;54.514;18.532;2022-11-20T04:54:53;46.40;;;19.37;;
20935;SDS011;10627;54.514;18.532;2022-11-20T04:59:53;49.20;;;20.90;;
20935;SDS011;10627;54.514;18.532;2022-11-20T05:04:54;47.93;;;20.70;;
20935;SDS011;10627;54.514;18.532;2022-11-20T05:09:54;47.73;;;20.23;;
20935;SDS011;10627;54.514;18.532;2022-11-20T05:14:55;46.67;;;20.10;;
20935;SDS011;10627;54.514;18.532;2022-11-20T05:19:56;48.83;;;21.07;;
20935;SDS011;10627;54.514;18.532;2022-11-20T05:24:56;46.07;;;20.33;;
20935;SDS011;10627;54.514;18.532;2022-11-20T05:29:57;46.47;;;19.47;;
20935;SDS011;10627;54.514;18.532;2022-11-20T05:34:57;43.23;;;18.87;;
20935;SDS011;10627;54.514;18.532;2022-11-20T05:39:58;41.93;;;19.30;;
20935;SDS011;10627;54.514;18.532;2022-11-20T05:44:59;43.37;;;19.53;;
20935;SDS011;10627;54.514;18.532;2022-11-20T05:50:00;46.43;;;20.07;;
20935;SDS011;10627;54.514;18.532;2022-11-20T05:55:00;42.03;;;17.77;;
20935;SDS011;10627;54.514;18.532;2022-11-20T06:00:02;47.40;;;19.97;;
20935;SDS011;10627;54.514;18.532;2022-11-20T06:05:04;48.63;;;20.27;;
20935;SDS011;10627;54.514;18.532;2022-11-20T06:10:05;45.63;;;20.33;;
20935;SDS011;10627;54.514;18.532;2022-11-20T06:15:06;44.60;;;21.13;;
20935;SDS011;10627;54.514;18.532;2022-11-20T06:20:07;44.93;;;20.60;;
20935;SDS011;10627;54.514;18.532;2022-11-20T06:25:07;46.13;;;19.63;;
20935;SDS011;10627;54.514;18.532;2022-11-20T06:30:09;47.87;;;19.43;;
20935;SDS011;10627;54.514;18.532;2022-11-20T06:35:09;51.60;;;20.67;;
20935;SDS011;10627;54.514;18.532;2022-11-20T06:40:10;45.83;;;20.67;;
20935;SDS011;10627;54.514;18.532;2022-11-20T06:45:11;42.73;;;20.40;;
20935;SDS011;10627;54.514;18.532;2022-11-20T06:50:12;42.47;;;20.37;;
20935;SDS011;10627;54.514;18.532;2022-11-20T06:55:12;47.70;;;20.63;;
20935;SDS011;10627;54.514;18.532;2022-11-20T07:00:13;47.43;;;20.00;;
20935;SDS011;10627;54.514;18.532;2022-11-20T07:05:14;49.57;;;19.63;;
20935;SDS011;10627;54.514;18.532;2022-11-20T07:10:14;43.53;;;19.57;;
20935;SDS011;10627;54.514;18.532;2022-11-20T07:15:15;41.00;;;19.43;;
20935;SDS011;10627;54.514;18.532;2022-11-20T07:20:15;48.10;;;19.57;;
20935;SDS011;10627;54.514;18.532;2022-11-20T07:25:16;48.10;;;20.33;;
20935;SDS011;10627;54.514;18.532;2022-11-20T07:30:17;43.47;;;19.53;;
20935;SDS011;10627;54.514;18.532;2022-11-20T07:35:18;45.07;;;19.43;;
20935;SDS011;10627;54.514;18.532;2022-11-20T07:40:19;45.67;;;21.23;;
20935;SDS011;10627;54.514;18.532;2022-11-20T07:45:20;49.90;;;21.47;;
20935;SDS011;10627;54.514;18.532;2022-11-20T07:50:21;54.10;;;23.03;;
20935;SDS011;10627;54.514;18.532;2022-11-20T07:55:22;50.37;;;21.73;;
20935;SDS011;10627;54.514;18.532;2022-11-20T08:00:23;48.63;;;21.37;;
20935;SDS011;10627;54.514;18.532;2022-11-20T08:05:23;50.10;;;21.37;;
20935;SDS011;10627;54.514;18.532;2022-11-20T08:10:24;51.33;;;21.80;;
20935;SDS011;10627;54.514;18.532;2022-11-20T08:15:24;51.40;;;21.47;;
20935;SDS011;10627;54.514;18.532;2022-11-20T08:20:25;48.83;;;22.90;;
20935;SDS011;10627;54.514;18.532;2022-11-20T08:25:26;41.80;;;20.77;;
20935;SDS011;10627;54.514;18.532;2022-11-20T08:30:27;43.63;;;20.73;;
20935;SDS011;10627;54.514;18.532;2022-11-20T08:35:27;46.63;;;21.23;;
20935;SDS011;10627;54.514;18.532;2022-11-20T08:40:28;43.30;;;19.50;;
20935;SDS011;10627;54.514;18.532;2022-11-20T08:45:29;46.27;;;21.83;;
20935;SDS011;10627;54.514;18.532;2022-11-20T08:50:30;51.30;;;20.90;;
20935;SDS011;10627;54.514;18.532;2022-11-20T08:55:32;48.57;;;21.30;;
20935;SDS011;10627;54.514;18.532;2022-11-20T09:00:33;55.37;;;22.17;;
20935;SDS011;10627;54.514;18.532;2022-11-20T09:05:33;52.97;;;21.33;;
20935;SDS011;10627;54.514;18.532;2022-11-20T09:10:34;51.33;;;21.33;;
20935;SDS011;10627;54.514;18.532;2022-11-20T09:15:35;51.63;;;21.33;;
20935;SDS011;10627;54.514;18.532;2022-11-20T09:20:35;55.30;;;22.93;;
20935;SDS011;10627;54.514;18.532;2022-11-20T09:25:36;49.80;;;20.77;;
20935;SDS011;10627;54.514;18.532;2022-11-20T09:30:36;48.83;;;19.93;;
20935;SDS011;10627;54.514;18.532;2022-11-20T09:35:37;44.60;;;19.53;;
20935;SDS011;10627;54.514;18.532;2022-11-20T09:40:38;49.03;;;20.20;;
20935;SDS011;10627;54.514;18.532;2022-11-20T09:55:50;45.97;;;19.73;;
20935;SDS011;10627;54.514;18.532;2022-11-20T10:01:03;43.63;;;18.70;;
20935;SDS011;10627;54.514;18.532;2022-11-20T10:11:35;44.50;;;19.30;;
20935;SDS011;10627;54.514;18.532;2022-11-20T10:16:50;46.17;;;19.70;;
20935;SDS011;10627;54.514;18.532;2022-11-20T10:32:20;46.10;;;18.80;;
20935;SDS011;10627;54.514;18.532;2022-11-20T10:37:24;44.50;;;18.33;;
20935;SDS011;10627;54.514;18.532;2022-11-20T10:42:30;46.90;;;17.77;;
20935;SDS011;10627;54.514;18.532;2022-11-20T10:47:32;52.33;;;19.77;;
20935;SDS011;10627;54.514;18.532;2022-11-20T10:57:47;54.00;;;20.50;;
20935;SDS011;10627;54.514;18.532;2022-11-20T11:02:50;48.70;;;18.57;;
20935;SDS011;10627;54.514;18.532;2022-11-20T11:07:54;48.37;;;20.57;;
20935;SDS011;10627;54.514;18.532;2022-11-20T11:12:56;57.50;;;22.98;;
20935;SDS011;10627;54.514;18.532;2022-11-20T11:17:56;52.33;;;20.37;;
20935;SDS011;10627;54.514;18.532;2022-11-20T11:22:58;58.27;;;20.93;;
20935;SDS011;10627;54.514;18.532;2022-11-20T11:28:00;57.37;;;20.37;;
20935;SDS011;10627;54.514;18.532;2022-11-20T11:33:11;48.47;;;19.40;;
20935;SDS011;10627;54.514;18.532;2022-11-20T11:38:13;61.47;;;21.87;;
20935;SDS011;10627;54.514;18.532;2022-11-20T11:43:31;51.63;;;20.13;;
20935;SDS011;10627;54.514;18.532;2022-11-20T11:48:58;54.00;;;19.57;;
20935;SDS011;10627;54.514;18.532;2022-11-20T11:54:00;60.03;;;22.00;;
20935;SDS011;10627;54.514;18.532;2022-11-20T11:59:04;54.40;;;20.33;;
20935;SDS011;10627;54.514;18.532;2022-11-20T12:09:19;56.00;;;21.17;;
20935;SDS011;10627;54.514;18.532;2022-11-20T12:14:29;64.40;;;24.60;;
20935;SDS011;10627;54.514;18.532;2022-11-20T12:19:33;61.50;;;22.80;;
20935;SDS011;10627;54.514;18.532;2022-11-20T12:45:30;53.40;;;21.80;;
20935;SDS011;10627;54.514;18.532;2022-11-20T12:55:56;56.80;;;22.23;;
20935;SDS011;10627;54.514;18.532;2022-11-20T13:01:50;57.67;;;22.70;;
20935;SDS011;10627;54.514;18.532;2022-11-20T13:06:43;55.13;;;22.47;;
20935;SDS011;10627;54.514;18.532;2022-11-20T13:16:50;63.57;;;24.17;;
20935;SDS011;10627;54.514;18.532;2022-11-20T13:21:52;64.60;;;26.23;;
20935;SDS011;10627;54.514;18.532;2022-11-20T13:27:17;66.30;;;26.33;;
20935;SDS011;10627;54.514;18.532;2022-11-20T13:32:20;60.70;;;25.40;;
20935;SDS011;10627;54.514;18.532;2022-11-20T13:37:25;59.93;;;26.03;;
20935;SDS011;10627;54.514;18.532;2022-11-20T13:42:27;69.80;;;26.23;;
20935;SDS011;10627;54.514;18.532;2022-11-20T13:47:28;71.30;;;27.87;;
20935;SDS011;10627;54.514;18.532;2022-11-20T14:03:06;64.63;;;25.53;;
20935;SDS011;10627;54.514;18.532;2022-11-20T14:08:14;65.43;;;26.07;;
20935;SDS011;10627;54.514;18.532;2022-11-20T14:13:19;68.60;;;25.37;;
20935;SDS011;10627;54.514;18.532;2022-11-20T14:18:21;75.00;;;28.80;;
20935;SDS011;10627;54.514;18.532;2022-11-20T14:23:26;68.60;;;27.20;;
20935;SDS011;10627;54.514;18.532;2022-11-20T14:28:29;62.50;;;25.50;;
20935;SDS011;10627;54.514;18.532;2022-11-20T14:33:30;66.00;;;27.13;;
20935;SDS011;10627;54.514;18.532;2022-11-20T14:43:51;75.57;;;28.83;;
20935;SDS011;10627;54.514;18.532;2022-11-20T14:49:13;76.97;;;34.40;;
20935;SDS011;10627;54.514;18.532;2022-11-20T14:54:20;74.50;;;28.37;;
20935;SDS011;10627;54.514;18.532;2022-11-20T14:59:41;72.97;;;29.40;;
20935;SDS011;10627;54.514;18.532;2022-11-20T15:04:45;78.30;;;28.67;;
20935;SDS011;10627;54.514;18.532;2022-11-20T15:09:45;80.57;;;31.03;;
20935;SDS011;10627;54.514;18.532;2022-11-20T15:14:48;81.70;;;30.37;;
20935;SDS011;10627;54.514;18.532;2022-11-20T15:19:49;74.30;;;29.20;;
20935;SDS011;10627;54.514;18.532;2022-11-20T15:35:49;75.47;;;31.10;;
20935;SDS011;10627;54.514;18.532;2022-11-20T15:41:10;78.97;;;31.20;;
20935;SDS011;10627;54.514;18.532;2022-11-20T15:52:02;73.50;;;31.90;;
20935;SDS011;10627;54.514;18.532;2022-11-20T15:57:02;76.97;;;30.87;;
20935;SDS011;10627;54.514;18.532;2022-11-20T16:02:08;74.73;;;30.53;;
20935;SDS011;10627;54.514;18.532;2022-11-20T16:49:27;87.33;;;34.40;;
20935;SDS011;10627;54.514;18.532;2022-11-20T17:00:02;75.27;;;32.33;;
20935;SDS011;10627;54.514;18.532;2022-11-20T17:05:03;87.23;;;34.10;;
20935;SDS011;10627;54.514;18.532;2022-11-20T17:10:06;80.67;;;35.10;;
20935;SDS011;10627;54.514;18.532;2022-11-20T17:15:11;89.17;;;34.63;;
20935;SDS011;10627;54.514;18.532;2022-11-20T17:20:12;86.07;;;35.60;;
20935;SDS011;10627;54.514;18.532;2022-11-20T17:25:12;95.23;;;36.80;;
20935;SDS011;10627;54.514;18.532;2022-11-20T17:30:13;86.87;;;34.97;;
20935;SDS011;10627;54.514;18.532;2022-11-20T17:35:14;85.30;;;35.43;;
20935;SDS011;10627;54.514;18.532;2022-11-20T17:40:14;86.27;;;34.53;;
20935;SDS011;10627;54.514;18.532;2022-11-20T17:45:15;90.03;;;34.00;;
20935;SDS011;10627;54.514;18.532;2022-11-20T17:50:15;86.03;;;34.43;;
20935;SDS011;10627;54.514;18.532;2022-11-20T17:55:16;85.97;;;34.77;;
20935;SDS011;10627;54.514;18.532;2022-11-20T18:00:16;85.80;;;35.20;;
20935;SDS011;10627;54.514;18.532;2022-11-20T18:05:17;86.47;;;36.37;;
20935;SDS011;10627;54.514;18.532;2022-11-20T18:10:18;84.50;;;33.83;;
20935;SDS011;10627;54.514;18.532;2022-11-20T18:15:18;88.07;;;36.33;;
20935;SDS011;10627;54.514;18.532;2022-11-20T18:20:19;90.83;;;34.67;;
20935;SDS011;10627;54.514;18.532;2022-11-20T18:25:19;87.33;;;34.57;;
20935;SDS011;10627;54.514;18.532;2022-11-20T18:30:20;85.47;;;36.33;;
20935;SDS011;10627;54.514;18.532;2022-11-20T18:35:20;84.43;;;35.27;;
20935;SDS011;10627;54.514;18.532;2022-11-20T18:40:21;95.00;;;38.40;;
20935;SDS011;10627;54.514;18.532;2022-11-20T18:45:21;90.10;;;37.47;;
20935;SDS011;10627;54.514;18.532;2022-11-20T18:50:22;104.03;;;41.53;;
20935;SDS011;10627;54.514;18.532;2022-11-20T18:55:22;96.77;;;39.07;;
20935;SDS011;10627;54.514;18.532;2022-11-20T19:00:25;99.70;;;40.53;;
20935;SDS011;10627;54.514;18.532;2022-11-20T19:05:25;103.90;;;39.73;;
20935;SDS011;10627;54.514;18.532;2022-11-20T19:10:26;108.03;;;40.00;;
20935;SDS011;10627;54.514;18.532;2022-11-20T19:15:27;103.37;;;40.83;;
20935;SDS011;10627;54.514;18.532;2022-11-20T19:20:27;98.97;;;40.07;;
20935;SDS011;10627;54.514;18.532;2022-11-20T19:25:29;98.90;;;40.50;;
20935;SDS011;10627;54.514;18.532;2022-11-20T19:30:29;98.97;;;38.80;;
20935;SDS011;10627;54.514;18.532;2022-11-20T19:35:30;95.20;;;39.27;;
20935;SDS011;10627;54.514;18.532;2022-11-20T19:40:30;95.63;;;38.80;;
20935;SDS011;10627;54.514;18.532;2022-11-20T19:45:31;103.70;;;39.63;;
20935;SDS011;10627;54.514;18.532;2022-11-20T19:50:31;100.20;;;39.87;;
20935;SDS011;10627;54.514;18.532;2022-11-20T19:55:32;102.50;;;40.90;;
20935;SDS011;10627;54.514;18.532;2022-11-20T20:00:32;102.57;;;41.53;;
20935;SDS011;10627;54.514;18.532;2022-11-20T20:05:33;111.53;;;42.73;;
20935;SDS011;10627;54.514;18.532;2022-11-20T20:10:33;107.67;;;43.10;;
20935;SDS011;10627;54.514;18.532;2022-11-20T20:15:36;99.40;;;41.17;;
20935;SDS011;10627;54.514;18.532;2022-11-20T20:20:38;103.90;;;41.53;;
20935;SDS011;10627;54.514;18.532;2022-11-20T20:25:38;99.80;;;41.10;;
20935;SDS011;10627;54.514;18.532;2022-11-20T20:30:39;99.60;;;38.50;;
20935;SDS011;10627;54.514;18.532;2022-11-20T20:35:40;92.97;;;35.50;;
20935;SDS011;10627;54.514;18.532;2022-11-20T20:40:47;85.67;;;33.83;;
20935;SDS011;10627;54.514;18.532;2022-11-20T20:45:52;72.83;;;31.90;;
20935;SDS011;10627;54.514;18.532;2022-11-20T21:02:30;64.53;;;27.47;;
20935;SDS011;10627;54.514;18.532;2022-11-20T21:07:31;74.30;;;30.63;;
20935;SDS011;10627;54.514;18.532;2022-11-20T21:12:31;68.03;;;29.53;;
20935;SDS011;10627;54.514;18.532;2022-11-20T21:17:32;68.07;;;30.07;;
20935;SDS011;10627;54.514;18.532;2022-11-20T21:22:34;66.67;;;29.33;;
20935;SDS011;10627;54.514;18.532;2022-11-20T21:27:34;77.80;;;31.53;;
20935;SDS011;10627;54.514;18.532;2022-11-20T21:32:35;78.93;;;30.97;;
20935;SDS011;10627;54.514;18.532;2022-11-20T21:37:35;70.97;;;30.30;;
20935;SDS011;10627;54.514;18.532;2022-11-20T21:42:36;72.70;;;31.37;;
20935;SDS011;10627;54.514;18.532;2022-11-20T21:47:36;78.63;;;33.50;;
20935;SDS011;10627;54.514;18.532;2022-11-20T21:52:37;79.97;;;31.47;;
20935;SDS011;10627;54.514;18.532;2022-11-20T21:57:37;78.47;;;34.10;;
20935;SDS011;10627;54.514;18.532;2022-11-20T22:02:38;78.30;;;33.00;;
20935;SDS011;10627;54.514;18.532;2022-11-20T22:07:43;81.43;;;33.23;;
20935;SDS011;10627;54.514;18.532;2022-11-20T22:12:44;67.87;;;30.67;;
20935;SDS011;10627;54.514;18.532;2022-11-20T22:17:44;78.60;;;34.50;;
20935;SDS011;10627;54.514;18.532;2022-11-20T22:23:03;69.00;;;27.40;;
20935;SDS011;10627;54.514;18.532;2022-11-20T22:28:04;66.40;;;27.30;;
20935;SDS011;10627;54.514;18.532;2022-11-20T22:33:06;57.30;;;24.90;;
20935;SDS011;10627;54.514;18.532;2022-11-20T22:38:06;53.87;;;24.13;;
20935;SDS011;10627;54.514;18.532;2022-11-20T22:43:07;60.20;;;25.37;;
20935;SDS011;10627;54.514;18.532;2022-11-20T22:48:07;50.83;;;23.53;;
20935;SDS011;10627;54.514;18.532;2022-11-20T22:53:08;54.67;;;24.67;;
20935;SDS011;10627;54.514;18.532;2022-11-20T22:58:09;48.73;;;23.57;;
20935;SDS011;10627;54.514;18.532;2022-11-20T23:03:09;49.07;;;22.83;;
20935;SDS011;10627;54.514;18.532;2022-11-20T23:08:10;45.77;;;22.27;;
20935;SDS011;10627;54.514;18.532;2022-11-20T23:13:10;49.40;;;22.33;;
20935;SDS011;10627;54.514;18.532;2022-11-20T23:18:11;47.77;;;21.93;;
20935;SDS011;10627;54.514;18.532;2022-11-20T23:23:11;47.53;;;23.00;;
20935;SDS011;10627;54.514;18.532;2022-11-20T23:28:11;48.00;;;22.10;;
20935;SDS011;10627;54.514;18.532;2022-11-20T23:33:12;49.77;;;23.03;;
20935;SDS011;10627;54.514;18.532;2022-11-20T23:38:12;47.63;;;23.07;;
20935;SDS011;10627;54.514;18.532;2022-11-20T23:43:14;51.73;;;23.97;;
20935;SDS011;10627;54.514;18.532;2022-11-20T23:48:14;50.83;;;23.03;;
20935;SDS011;10627;54.514;18.532;2022-11-20T23:53:17;61.97;;;23.50;;
20935;SDS011;10627;54.514;18.532;2022-11-20T23:58:18;52.53;;;22.33;;
